sensor_id;sensor_type;location;lat;lon;timestamp;pressure;altitude;pressure_sealevel;temperature
10598;BMP180;5346;48.766;8.674;2023-07-09T00:00:00;94671.00;;;21.50
10598;BMP180;5346;48.766;8.674;2023-07-09T00:02:35;94665.00;;;21.60
10598;BMP180;5346;48.766;8.674;2023-07-09T00:05:15;94671.00;;;21.70
10598;BMP180;5346;48.766;8.674;2023-07-09T00:07:50;94671.00;;;21.60
10598;BMP180;5346;48.766;8.674;2023-07-09T00:10:24;94667.00;;;21.70
10598;BMP180;5346;48.766;8.674;2023-07-09T00:12:58;94679.00;;;21.50
10598;BMP180;5346;48.766;8.674;2023-07-09T00:15:26;94669.00;;;21.50
10598;BMP180;5346;48.766;8.674;2023-07-09T00:18:00;94671.00;;;21.70
10598;BMP180;5346;48.766;8.674;2023-07-09T00:20:34;94670.00;;;21.80
10598;BMP180;5346;48.766;8.674;2023-07-09T00:23:02;94670.00;;;21.90
10598;BMP180;5346;48.766;8.674;2023-07-09T00:25:31;94667.00;;;21.90
10598;BMP180;5346;48.766;8.674;2023-07-09T00:28:14;94674.00;;;21.70
10598;BMP180;5346;48.766;8.674;2023-07-09T00:30:49;94668.00;;;21.80
10598;BMP180;5346;48.766;8.674;2023-07-09T00:33:23;94679.00;;;21.90
10598;BMP180;5346;48.766;8.674;2023-07-09T00:36:16;94674.00;;;22.00
10598;BMP180;5346;48.766;8.674;2023-07-09T00:38:51;94668.00;;;22.00
10598;BMP180;5346;48.766;8.674;2023-07-09T00:41:22;94681.00;;;21.90
10598;BMP180;5346;48.766;8.674;2023-07-09T00:43:56;94684.00;;;22.00
10598;BMP180;5346;48.766;8.674;2023-07-09T00:49:07;94678.00;;;21.90
10598;BMP180;5346;48.766;8.674;2023-07-09T00:51:41;94670.00;;;21.80
10598;BMP180;5346;48.766;8.674;2023-07-09T00:54:37;94675.00;;;21.60
10598;BMP180;5346;48.766;8.674;2023-07-09T00:57:13;94690.00;;;21.50
10598;BMP180;5346;48.766;8.674;2023-07-09T00:59:58;94670.00;;;21.50
10598;BMP180;5346;48.766;8.674;2023-07-09T01:02:44;94679.00;;;21.30
10598;BMP180;5346;48.766;8.674;2023-07-09T01:05:19;94670.00;;;21.30
10598;BMP180;5346;48.766;8.674;2023-07-09T01:07:53;94656.00;;;21.20
10598;BMP180;5346;48.766;8.674;2023-07-09T01:10:28;94665.00;;;21.30
10598;BMP180;5346;48.766;8.674;2023-07-09T01:12:56;94659.00;;;21.20
10598;BMP180;5346;48.766;8.674;2023-07-09T01:15:31;94685.00;;;21.00
10598;BMP180;5346;48.766;8.674;2023-07-09T01:18:01;94713.00;;;20.90
10598;BMP180;5346;48.766;8.674;2023-07-09T01:20:35;94699.00;;;20.70
10598;BMP180;5346;48.766;8.674;2023-07-09T01:23:03;94682.00;;;20.50
10598;BMP180;5346;48.766;8.674;2023-07-09T01:25:45;94685.00;;;20.30
10598;BMP180;5346;48.766;8.674;2023-07-09T01:28:13;94666.00;;;20.30
10598;BMP180;5346;48.766;8.674;2023-07-09T01:30:48;94673.00;;;20.30
10598;BMP180;5346;48.766;8.674;2023-07-09T01:33:22;94697.00;;;20.20
10598;BMP180;5346;48.766;8.674;2023-07-09T01:35:56;94691.00;;;20.10
10598;BMP180;5346;48.766;8.674;2023-07-09T01:38:28;94688.00;;;20.10
10598;BMP180;5346;48.766;8.674;2023-07-09T01:41:04;94680.00;;;19.90
10598;BMP180;5346;48.766;8.674;2023-07-09T01:43:38;94690.00;;;19.90
10598;BMP180;5346;48.766;8.674;2023-07-09T01:46:13;94690.00;;;19.90
10598;BMP180;5346;48.766;8.674;2023-07-09T01:48:41;94688.00;;;19.90
10598;BMP180;5346;48.766;8.674;2023-07-09T01:51:16;94683.00;;;19.90
10598;BMP180;5346;48.766;8.674;2023-07-09T01:53:44;94684.00;;;19.90
10598;BMP180;5346;48.766;8.674;2023-07-09T01:56:19;94679.00;;;19.90
10598;BMP180;5346;48.766;8.674;2023-07-09T01:58:52;94670.00;;;19.90
10598;BMP180;5346;48.766;8.674;2023-07-09T02:01:20;94656.00;;;19.90
10598;BMP180;5346;48.766;8.674;2023-07-09T02:03:56;94673.00;;;19.80
10598;BMP180;5346;48.766;8.674;2023-07-09T02:06:30;94676.00;;;19.90
10598;BMP180;5346;48.766;8.674;2023-07-09T02:09:06;94658.00;;;20.00
10598;BMP180;5346;48.766;8.674;2023-07-09T02:11:40;94665.00;;;20.10
10598;BMP180;5346;48.766;8.674;2023-07-09T02:14:08;94667.00;;;20.20
10598;BMP180;5346;48.766;8.674;2023-07-09T02:16:43;94667.00;;;20.20
10598;BMP180;5346;48.766;8.674;2023-07-09T02:19:18;94670.00;;;20.20
10598;BMP180;5346;48.766;8.674;2023-07-09T02:21:51;94655.00;;;20.20
10598;BMP180;5346;48.766;8.674;2023-07-09T02:24:19;94672.00;;;20.30
10598;BMP180;5346;48.766;8.674;2023-07-09T02:27:01;94685.00;;;20.30
10598;BMP180;5346;48.766;8.674;2023-07-09T02:29:35;94664.00;;;20.30
10598;BMP180;5346;48.766;8.674;2023-07-09T02:32:10;94681.00;;;20.20
10598;BMP180;5346;48.766;8.674;2023-07-09T02:34:40;94658.00;;;20.30
10598;BMP180;5346;48.766;8.674;2023-07-09T02:37:16;94655.00;;;20.30
10598;BMP180;5346;48.766;8.674;2023-07-09T02:39:52;94658.00;;;20.30
10598;BMP180;5346;48.766;8.674;2023-07-09T02:42:26;94653.00;;;20.20
10598;BMP180;5346;48.766;8.674;2023-07-09T02:45:02;94678.00;;;20.10
10598;BMP180;5346;48.766;8.674;2023-07-09T02:47:30;94657.00;;;20.30
10598;BMP180;5346;48.766;8.674;2023-07-09T02:50:05;94695.00;;;20.30
10598;BMP180;5346;48.766;8.674;2023-07-09T02:52:40;94670.00;;;20.20
10598;BMP180;5346;48.766;8.674;2023-07-09T02:55:15;94680.00;;;19.90
10598;BMP180;5346;48.766;8.674;2023-07-09T02:57:50;94673.00;;;19.90
10598;BMP180;5346;48.766;8.674;2023-07-09T03:00:18;94650.00;;;20.00
10598;BMP180;5346;48.766;8.674;2023-07-09T03:02:51;94684.00;;;20.20
10598;BMP180;5346;48.766;8.674;2023-07-09T03:05:33;94676.00;;;20.20
10598;BMP180;5346;48.766;8.674;2023-07-09T03:08:08;94692.00;;;20.30
10598;BMP180;5346;48.766;8.674;2023-07-09T03:10:42;94693.00;;;20.30
10598;BMP180;5346;48.766;8.674;2023-07-09T03:13:16;94689.00;;;20.30
10598;BMP180;5346;48.766;8.674;2023-07-09T03:15:55;94688.00;;;20.20
10598;BMP180;5346;48.766;8.674;2023-07-09T03:18:30;94682.00;;;20.10
10598;BMP180;5346;48.766;8.674;2023-07-09T03:21:03;94688.00;;;20.10
10598;BMP180;5346;48.766;8.674;2023-07-09T03:23:37;94700.00;;;20.30
10598;BMP180;5346;48.766;8.674;2023-07-09T03:26:04;94697.00;;;20.40
10598;BMP180;5346;48.766;8.674;2023-07-09T03:28:39;94690.00;;;20.50
10598;BMP180;5346;48.766;8.674;2023-07-09T03:31:06;94694.00;;;20.50
10598;BMP180;5346;48.766;8.674;2023-07-09T03:33:40;94680.00;;;20.40
10598;BMP180;5346;48.766;8.674;2023-07-09T03:36:15;94700.00;;;20.50
10598;BMP180;5346;48.766;8.674;2023-07-09T03:38:49;94679.00;;;20.60
10598;BMP180;5346;48.766;8.674;2023-07-09T03:41:17;94700.00;;;20.70
10598;BMP180;5346;48.766;8.674;2023-07-09T03:43:50;94684.00;;;20.70
10598;BMP180;5346;48.766;8.674;2023-07-09T03:46:19;94698.00;;;20.50
10598;BMP180;5346;48.766;8.674;2023-07-09T03:48:53;94711.00;;;20.30
10598;BMP180;5346;48.766;8.674;2023-07-09T03:51:27;94671.00;;;20.30
10598;BMP180;5346;48.766;8.674;2023-07-09T03:54:02;94683.00;;;20.30
10598;BMP180;5346;48.766;8.674;2023-07-09T03:56:36;94679.00;;;20.30
10598;BMP180;5346;48.766;8.674;2023-07-09T03:59:10;94681.00;;;20.50
10598;BMP180;5346;48.766;8.674;2023-07-09T04:01:45;94674.00;;;20.50
10598;BMP180;5346;48.766;8.674;2023-07-09T04:04:25;94683.00;;;20.50
10598;BMP180;5346;48.766;8.674;2023-07-09T04:06:53;94683.00;;;20.40
10598;BMP180;5346;48.766;8.674;2023-07-09T04:09:26;94700.00;;;20.30
10598;BMP180;5346;48.766;8.674;2023-07-09T04:12:00;94702.00;;;20.50
10598;BMP180;5346;48.766;8.674;2023-07-09T04:14:31;94699.00;;;20.60
10598;BMP180;5346;48.766;8.674;2023-07-09T04:17:05;94706.00;;;20.80
10598;BMP180;5346;48.766;8.674;2023-07-09T04:19:38;94707.00;;;21.00
10598;BMP180;5346;48.766;8.674;2023-07-09T04:22:13;94688.00;;;20.90
10598;BMP180;5346;48.766;8.674;2023-07-09T04:24:41;94691.00;;;21.00
10598;BMP180;5346;48.766;8.674;2023-07-09T04:27:16;94684.00;;;21.00
10598;BMP180;5346;48.766;8.674;2023-07-09T04:29:44;94710.00;;;21.10
10598;BMP180;5346;48.766;8.674;2023-07-09T04:32:18;94714.00;;;21.20
10598;BMP180;5346;48.766;8.674;2023-07-09T04:34:46;94709.00;;;21.30
10598;BMP180;5346;48.766;8.674;2023-07-09T04:37:14;94712.00;;;21.30
10598;BMP180;5346;48.766;8.674;2023-07-09T04:39:52;94713.00;;;21.30
10598;BMP180;5346;48.766;8.674;2023-07-09T04:42:19;94704.00;;;21.30
10598;BMP180;5346;48.766;8.674;2023-07-09T04:44:52;94704.00;;;21.30
10598;BMP180;5346;48.766;8.674;2023-07-09T04:47:20;94714.00;;;21.40
10598;BMP180;5346;48.766;8.674;2023-07-09T04:49:54;94695.00;;;21.50
10598;BMP180;5346;48.766;8.674;2023-07-09T04:52:21;94699.00;;;21.70
10598;BMP180;5346;48.766;8.674;2023-07-09T04:54:56;94719.00;;;21.80
10598;BMP180;5346;48.766;8.674;2023-07-09T04:57:31;94709.00;;;22.00
10598;BMP180;5346;48.766;8.674;2023-07-09T04:59:58;94725.00;;;22.20
10598;BMP180;5346;48.766;8.674;2023-07-09T05:02:33;94724.00;;;22.30
10598;BMP180;5346;48.766;8.674;2023-07-09T05:05:08;94725.00;;;22.50
10598;BMP180;5346;48.766;8.674;2023-07-09T05:07:42;94714.00;;;22.70
10598;BMP180;5346;48.766;8.674;2023-07-09T05:10:16;94720.00;;;22.80
10598;BMP180;5346;48.766;8.674;2023-07-09T05:12:54;94724.00;;;23.00
10598;BMP180;5346;48.766;8.674;2023-07-09T05:15:29;94726.00;;;23.10
10598;BMP180;5346;48.766;8.674;2023-07-09T05:18:03;94719.00;;;23.30
10598;BMP180;5346;48.766;8.674;2023-07-09T05:20:39;94734.00;;;23.40
10598;BMP180;5346;48.766;8.674;2023-07-09T05:23:13;94724.00;;;23.50
10598;BMP180;5346;48.766;8.674;2023-07-09T05:25:41;94730.00;;;23.50
10598;BMP180;5346;48.766;8.674;2023-07-09T05:28:30;94734.00;;;23.70
10598;BMP180;5346;48.766;8.674;2023-07-09T05:31:08;94734.00;;;23.90
10598;BMP180;5346;48.766;8.674;2023-07-09T05:33:42;94733.00;;;24.00
10598;BMP180;5346;48.766;8.674;2023-07-09T05:36:16;94727.00;;;24.10
10598;BMP180;5346;48.766;8.674;2023-07-09T05:38:49;94714.00;;;24.30
10598;BMP180;5346;48.766;8.674;2023-07-09T05:41:18;94707.00;;;24.40
10598;BMP180;5346;48.766;8.674;2023-07-09T05:43:52;94723.00;;;24.50
10598;BMP180;5346;48.766;8.674;2023-07-09T05:46:27;94694.00;;;24.50
10598;BMP180;5346;48.766;8.674;2023-07-09T05:49:02;94731.00;;;24.80
10598;BMP180;5346;48.766;8.674;2023-07-09T05:51:30;94726.00;;;24.90
10598;BMP180;5346;48.766;8.674;2023-07-09T05:54:04;94730.00;;;25.20
10598;BMP180;5346;48.766;8.674;2023-07-09T05:56:32;94713.00;;;25.30
10598;BMP180;5346;48.766;8.674;2023-07-09T05:59:05;94739.00;;;25.50
10598;BMP180;5346;48.766;8.674;2023-07-09T06:01:39;94681.00;;;25.70
10598;BMP180;5346;48.766;8.674;2023-07-09T06:04:30;94742.00;;;25.80
10598;BMP180;5346;48.766;8.674;2023-07-09T06:07:10;94719.00;;;26.00
10598;BMP180;5346;48.766;8.674;2023-07-09T06:09:38;94728.00;;;26.10
10598;BMP180;5346;48.766;8.674;2023-07-09T06:12:12;94714.00;;;26.20
10598;BMP180;5346;48.766;8.674;2023-07-09T06:14:46;94734.00;;;26.50
10598;BMP180;5346;48.766;8.674;2023-07-09T06:17:14;94735.00;;;26.70
10598;BMP180;5346;48.766;8.674;2023-07-09T06:19:48;94704.00;;;26.90
10598;BMP180;5346;48.766;8.674;2023-07-09T06:22:25;94723.00;;;27.30
10598;BMP180;5346;48.766;8.674;2023-07-09T06:24:59;94733.00;;;27.60
10598;BMP180;5346;48.766;8.674;2023-07-09T06:27:33;94746.00;;;27.90
10598;BMP180;5346;48.766;8.674;2023-07-09T06:30:00;94740.00;;;27.90
10598;BMP180;5346;48.766;8.674;2023-07-09T06:32:35;94724.00;;;27.90
10598;BMP180;5346;48.766;8.674;2023-07-09T06:35:05;94729.00;;;28.10
10598;BMP180;5346;48.766;8.674;2023-07-09T06:37:38;94733.00;;;27.90
10598;BMP180;5346;48.766;8.674;2023-07-09T06:40:06;94733.00;;;28.30
10598;BMP180;5346;48.766;8.674;2023-07-09T06:42:42;94723.00;;;28.80
10598;BMP180;5346;48.766;8.674;2023-07-09T06:45:16;94722.00;;;28.70
10598;BMP180;5346;48.766;8.674;2023-07-09T06:47:50;94742.00;;;28.70
10598;BMP180;5346;48.766;8.674;2023-07-09T06:50:18;94682.00;;;28.60
10598;BMP180;5346;48.766;8.674;2023-07-09T06:52:52;94750.00;;;28.30
10598;BMP180;5346;48.766;8.674;2023-07-09T06:55:26;94757.00;;;28.30
10598;BMP180;5346;48.766;8.674;2023-07-09T06:58:00;94752.00;;;28.00
10598;BMP180;5346;48.766;8.674;2023-07-09T07:00:36;94748.00;;;27.80
10598;BMP180;5346;48.766;8.674;2023-07-09T07:03:17;94740.00;;;27.70
10598;BMP180;5346;48.766;8.674;2023-07-09T07:05:53;94732.00;;;27.90
10598;BMP180;5346;48.766;8.674;2023-07-09T07:08:28;94756.00;;;28.00
10598;BMP180;5346;48.766;8.674;2023-07-09T07:11:04;94754.00;;;28.20
10598;BMP180;5346;48.766;8.674;2023-07-09T07:13:40;94760.00;;;28.00
10598;BMP180;5346;48.766;8.674;2023-07-09T07:16:14;94750.00;;;28.00
10598;BMP180;5346;48.766;8.674;2023-07-09T07:18:55;94742.00;;;28.10
10598;BMP180;5346;48.766;8.674;2023-07-09T07:21:28;94749.00;;;28.20
10598;BMP180;5346;48.766;8.674;2023-07-09T07:24:04;94709.00;;;28.20
10598;BMP180;5346;48.766;8.674;2023-07-09T07:26:38;94735.00;;;28.20
10598;BMP180;5346;48.766;8.674;2023-07-09T07:29:06;94705.00;;;28.20
10598;BMP180;5346;48.766;8.674;2023-07-09T07:31:39;94750.00;;;28.40
10598;BMP180;5346;48.766;8.674;2023-07-09T07:34:13;94731.00;;;28.30
10598;BMP180;5346;48.766;8.674;2023-07-09T07:36:41;94725.00;;;28.40
10598;BMP180;5346;48.766;8.674;2023-07-09T07:39:15;94731.00;;;28.60
10598;BMP180;5346;48.766;8.674;2023-07-09T07:41:42;94755.00;;;28.60
10598;BMP180;5346;48.766;8.674;2023-07-09T07:44:17;94727.00;;;28.70
10598;BMP180;5346;48.766;8.674;2023-07-09T07:46:52;94731.00;;;28.90
10598;BMP180;5346;48.766;8.674;2023-07-09T07:49:27;94734.00;;;28.90
10598;BMP180;5346;48.766;8.674;2023-07-09T07:52:00;94734.00;;;28.60
10598;BMP180;5346;48.766;8.674;2023-07-09T07:54:36;94731.00;;;28.90
10598;BMP180;5346;48.766;8.674;2023-07-09T07:57:04;94722.00;;;29.20
10598;BMP180;5346;48.766;8.674;2023-07-09T07:59:39;94733.00;;;29.10
10598;BMP180;5346;48.766;8.674;2023-07-09T08:02:11;94731.00;;;29.50
10598;BMP180;5346;48.766;8.674;2023-07-09T08:04:45;94744.00;;;29.60
10598;BMP180;5346;48.766;8.674;2023-07-09T08:07:26;94736.00;;;29.80
10598;BMP180;5346;48.766;8.674;2023-07-09T08:10:00;94722.00;;;29.40
10598;BMP180;5346;48.766;8.674;2023-07-09T08:12:29;94742.00;;;29.60
10598;BMP180;5346;48.766;8.674;2023-07-09T08:14:57;94720.00;;;29.70
10598;BMP180;5346;48.766;8.674;2023-07-09T08:17:30;94729.00;;;29.90
10598;BMP180;5346;48.766;8.674;2023-07-09T08:20:05;94733.00;;;30.10
10598;BMP180;5346;48.766;8.674;2023-07-09T08:22:39;94738.00;;;30.30
10598;BMP180;5346;48.766;8.674;2023-07-09T08:25:13;94728.00;;;30.50
10598;BMP180;5346;48.766;8.674;2023-07-09T08:27:47;94716.00;;;30.80
10598;BMP180;5346;48.766;8.674;2023-07-09T08:30:15;94728.00;;;30.80
10598;BMP180;5346;48.766;8.674;2023-07-09T08:32:49;94744.00;;;30.40
10598;BMP180;5346;48.766;8.674;2023-07-09T08:35:24;94757.00;;;30.40
10598;BMP180;5346;48.766;8.674;2023-07-09T08:38:03;94738.00;;;30.90
10598;BMP180;5346;48.766;8.674;2023-07-09T08:40:30;94742.00;;;30.80
10598;BMP180;5346;48.766;8.674;2023-07-09T08:43:34;94715.00;;;30.60
10598;BMP180;5346;48.766;8.674;2023-07-09T08:46:26;94735.00;;;30.60
10598;BMP180;5346;48.766;8.674;2023-07-09T08:49:16;94731.00;;;30.70
10598;BMP180;5346;48.766;8.674;2023-07-09T08:51:48;94739.00;;;31.00
10598;BMP180;5346;48.766;8.674;2023-07-09T08:54:35;94744.00;;;30.90
10598;BMP180;5346;48.766;8.674;2023-07-09T08:57:30;94735.00;;;31.50
10598;BMP180;5346;48.766;8.674;2023-07-09T09:00:15;94730.00;;;31.40
10598;BMP180;5346;48.766;8.674;2023-07-09T09:03:21;94745.00;;;31.10
10598;BMP180;5346;48.766;8.674;2023-07-09T09:05:55;94744.00;;;31.70
10598;BMP180;5346;48.766;8.674;2023-07-09T09:09:02;94730.00;;;31.80
10598;BMP180;5346;48.766;8.674;2023-07-09T09:14:34;94747.00;;;31.50
10598;BMP180;5346;48.766;8.674;2023-07-09T09:17:15;94734.00;;;32.00
10598;BMP180;5346;48.766;8.674;2023-07-09T09:20:01;94740.00;;;32.00
10598;BMP180;5346;48.766;8.674;2023-07-09T09:22:54;94755.00;;;31.90
10598;BMP180;5346;48.766;8.674;2023-07-09T09:25:33;94740.00;;;32.00
10598;BMP180;5346;48.766;8.674;2023-07-09T09:28:08;94745.00;;;32.50
10598;BMP180;5346;48.766;8.674;2023-07-09T09:30:35;94743.00;;;32.00
10598;BMP180;5346;48.766;8.674;2023-07-09T09:33:11;94738.00;;;32.50
10598;BMP180;5346;48.766;8.674;2023-07-09T09:35:47;94742.00;;;32.90
10598;BMP180;5346;48.766;8.674;2023-07-09T09:38:25;94737.00;;;32.50
10598;BMP180;5346;48.766;8.674;2023-07-09T09:41:00;94734.00;;;32.70
10598;BMP180;5346;48.766;8.674;2023-07-09T09:43:37;94733.00;;;32.70
10598;BMP180;5346;48.766;8.674;2023-07-09T09:46:25;94733.00;;;32.30
10598;BMP180;5346;48.766;8.674;2023-07-09T09:49:00;94709.00;;;32.80
10598;BMP180;5346;48.766;8.674;2023-07-09T09:51:34;94720.00;;;33.00
10598;BMP180;5346;48.766;8.674;2023-07-09T09:54:20;94712.00;;;33.00
10598;BMP180;5346;48.766;8.674;2023-07-09T09:56:49;94715.00;;;33.70
10598;BMP180;5346;48.766;8.674;2023-07-09T09:59:36;94718.00;;;33.60
10598;BMP180;5346;48.766;8.674;2023-07-09T10:02:21;94707.00;;;33.20
10598;BMP180;5346;48.766;8.674;2023-07-09T10:04:57;94699.00;;;33.60
10598;BMP180;5346;48.766;8.674;2023-07-09T10:07:44;94711.00;;;34.30
10598;BMP180;5346;48.766;8.674;2023-07-09T10:10:23;94721.00;;;34.80
10598;BMP180;5346;48.766;8.674;2023-07-09T10:16:05;94711.00;;;34.60
10598;BMP180;5346;48.766;8.674;2023-07-09T10:21:54;94703.00;;;33.90
10598;BMP180;5346;48.766;8.674;2023-07-09T10:24:36;94706.00;;;33.70
10598;BMP180;5346;48.766;8.674;2023-07-09T10:27:31;94712.00;;;34.70
10598;BMP180;5346;48.766;8.674;2023-07-09T10:33:06;94698.00;;;34.90
10598;BMP180;5346;48.766;8.674;2023-07-09T10:36:00;94701.00;;;34.50
10598;BMP180;5346;48.766;8.674;2023-07-09T10:38:53;94693.00;;;34.60
10598;BMP180;5346;48.766;8.674;2023-07-09T10:41:30;94689.00;;;35.50
10598;BMP180;5346;48.766;8.674;2023-07-09T10:44:20;94699.00;;;35.00
10598;BMP180;5346;48.766;8.674;2023-07-09T10:46:53;94696.00;;;34.40
10598;BMP180;5346;48.766;8.674;2023-07-09T10:49:35;94685.00;;;34.80
10598;BMP180;5346;48.766;8.674;2023-07-09T10:52:29;94692.00;;;35.50
10598;BMP180;5346;48.766;8.674;2023-07-09T10:55:18;94697.00;;;34.60
10598;BMP180;5346;48.766;8.674;2023-07-09T10:58:27;94691.00;;;34.80
10598;BMP180;5346;48.766;8.674;2023-07-09T11:01:05;94685.00;;;35.10
10598;BMP180;5346;48.766;8.674;2023-07-09T11:03:56;94690.00;;;35.30
10598;BMP180;5346;48.766;8.674;2023-07-09T11:06:40;94682.00;;;35.50
10598;BMP180;5346;48.766;8.674;2023-07-09T11:09:37;94681.00;;;35.40
10598;BMP180;5346;48.766;8.674;2023-07-09T11:12:35;94690.00;;;35.20
10598;BMP180;5346;48.766;8.674;2023-07-09T11:15:18;94693.00;;;35.70
10598;BMP180;5346;48.766;8.674;2023-07-09T11:17:58;94690.00;;;35.60
10598;BMP180;5346;48.766;8.674;2023-07-09T11:20:41;94690.00;;;35.80
10598;BMP180;5346;48.766;8.674;2023-07-09T11:23:21;94676.00;;;35.60
10598;BMP180;5346;48.766;8.674;2023-07-09T11:26:03;94685.00;;;36.10
10598;BMP180;5346;48.766;8.674;2023-07-09T11:28:50;94682.00;;;36.50
10598;BMP180;5346;48.766;8.674;2023-07-09T11:39:41;94689.00;;;36.00
10598;BMP180;5346;48.766;8.674;2023-07-09T11:42:34;94675.00;;;36.10
10598;BMP180;5346;48.766;8.674;2023-07-09T11:45:13;94680.00;;;35.90
10598;BMP180;5346;48.766;8.674;2023-07-09T11:47:54;94671.00;;;36.10
10598;BMP180;5346;48.766;8.674;2023-07-09T11:50:41;94668.00;;;36.30
10598;BMP180;5346;48.766;8.674;2023-07-09T11:53:30;94674.00;;;36.50
10598;BMP180;5346;48.766;8.674;2023-07-09T11:56:09;94668.00;;;37.20
10598;BMP180;5346;48.766;8.674;2023-07-09T11:58:57;94664.00;;;37.50
10598;BMP180;5346;48.766;8.674;2023-07-09T12:01:44;94663.00;;;38.20
10598;BMP180;5346;48.766;8.674;2023-07-09T12:04:15;94669.00;;;37.60
10598;BMP180;5346;48.766;8.674;2023-07-09T12:06:59;94651.00;;;39.00
10598;BMP180;5346;48.766;8.674;2023-07-09T12:09:41;94656.00;;;39.00
10598;BMP180;5346;48.766;8.674;2023-07-09T12:12:23;94653.00;;;39.40
10598;BMP180;5346;48.766;8.674;2023-07-09T12:14:52;94654.00;;;38.80
10598;BMP180;5346;48.766;8.674;2023-07-09T12:17:27;94651.00;;;38.80
10598;BMP180;5346;48.766;8.674;2023-07-09T12:19:58;94649.00;;;39.80
10598;BMP180;5346;48.766;8.674;2023-07-09T12:22:32;94657.00;;;39.50
10598;BMP180;5346;48.766;8.674;2023-07-09T12:25:00;94657.00;;;38.70
10598;BMP180;5346;48.766;8.674;2023-07-09T12:27:34;94663.00;;;37.40
10598;BMP180;5346;48.766;8.674;2023-07-09T12:30:12;94644.00;;;37.40
10598;BMP180;5346;48.766;8.674;2023-07-09T12:32:50;94636.00;;;38.00
10598;BMP180;5346;48.766;8.674;2023-07-09T12:35:20;94627.00;;;38.80
10598;BMP180;5346;48.766;8.674;2023-07-09T12:37:55;94635.00;;;38.40
10598;BMP180;5346;48.766;8.674;2023-07-09T12:40:29;94630.00;;;38.00
10598;BMP180;5346;48.766;8.674;2023-07-09T12:43:04;94634.00;;;37.80
10598;BMP180;5346;48.766;8.674;2023-07-09T12:45:42;94632.00;;;37.90
10598;BMP180;5346;48.766;8.674;2023-07-09T12:48:17;94629.00;;;38.00
10598;BMP180;5346;48.766;8.674;2023-07-09T12:50:50;94622.00;;;37.50
10598;BMP180;5346;48.766;8.674;2023-07-09T12:53:27;94627.00;;;38.50
10598;BMP180;5346;48.766;8.674;2023-07-09T12:56:02;94617.00;;;38.80
10598;BMP180;5346;48.766;8.674;2023-07-09T12:58:38;94627.00;;;38.60
10598;BMP180;5346;48.766;8.674;2023-07-09T13:01:16;94612.00;;;38.30
10598;BMP180;5346;48.766;8.674;2023-07-09T13:03:55;94611.00;;;38.00
10598;BMP180;5346;48.766;8.674;2023-07-09T13:06:35;94616.00;;;38.30
10598;BMP180;5346;48.766;8.674;2023-07-09T13:09:20;94615.00;;;38.70
10598;BMP180;5346;48.766;8.674;2023-07-09T13:11:58;94595.00;;;39.30
10598;BMP180;5346;48.766;8.674;2023-07-09T13:14:29;94601.00;;;39.30
10598;BMP180;5346;48.766;8.674;2023-07-09T13:17:08;94614.00;;;38.70
10598;BMP180;5346;48.766;8.674;2023-07-09T13:19:43;94611.00;;;37.30
10598;BMP180;5346;48.766;8.674;2023-07-09T13:22:18;94611.00;;;37.30
10598;BMP180;5346;48.766;8.674;2023-07-09T13:24:53;94605.00;;;37.60
10598;BMP180;5346;48.766;8.674;2023-07-09T13:27:27;94592.00;;;37.70
10598;BMP180;5346;48.766;8.674;2023-07-09T13:30:03;94582.00;;;38.80
10598;BMP180;5346;48.766;8.674;2023-07-09T13:32:38;94585.00;;;39.40
10598;BMP180;5346;48.766;8.674;2023-07-09T13:35:18;94585.00;;;39.80
10598;BMP180;5346;48.766;8.674;2023-07-09T13:37:46;94585.00;;;39.70
10598;BMP180;5346;48.766;8.674;2023-07-09T13:40:22;94583.00;;;39.60
10598;BMP180;5346;48.766;8.674;2023-07-09T13:42:50;94590.00;;;40.00
10598;BMP180;5346;48.766;8.674;2023-07-09T13:45:25;94581.00;;;40.10
10598;BMP180;5346;48.766;8.674;2023-07-09T13:47:53;94594.00;;;39.20
10598;BMP180;5346;48.766;8.674;2023-07-09T13:50:28;94610.00;;;37.70
10598;BMP180;5346;48.766;8.674;2023-07-09T13:52:56;94617.00;;;36.60
10598;BMP180;5346;48.766;8.674;2023-07-09T13:55:32;94623.00;;;36.10
10598;BMP180;5346;48.766;8.674;2023-07-09T13:58:11;94620.00;;;35.70
10598;BMP180;5346;48.766;8.674;2023-07-09T14:00:47;94612.00;;;36.40
10598;BMP180;5346;48.766;8.674;2023-07-09T14:03:29;94583.00;;;36.70
10598;BMP180;5346;48.766;8.674;2023-07-09T14:06:16;94612.00;;;37.80
10598;BMP180;5346;48.766;8.674;2023-07-09T14:08:50;94556.00;;;37.30
10598;BMP180;5346;48.766;8.674;2023-07-09T14:11:18;94561.00;;;37.60
10598;BMP180;5346;48.766;8.674;2023-07-09T14:13:52;94573.00;;;37.50
10598;BMP180;5346;48.766;8.674;2023-07-09T14:16:19;94517.00;;;37.10
10598;BMP180;5346;48.766;8.674;2023-07-09T14:18:53;94560.00;;;37.10
10598;BMP180;5346;48.766;8.674;2023-07-09T14:21:27;94536.00;;;37.40
10598;BMP180;5346;48.766;8.674;2023-07-09T14:26:50;94563.00;;;38.00
10598;BMP180;5346;48.766;8.674;2023-07-09T14:29:25;94543.00;;;37.90
10598;BMP180;5346;48.766;8.674;2023-07-09T14:31:59;94520.00;;;39.30
10598;BMP180;5346;48.766;8.674;2023-07-09T14:34:34;94541.00;;;39.70
10598;BMP180;5346;48.766;8.674;2023-07-09T14:37:01;94531.00;;;39.70
10598;BMP180;5346;48.766;8.674;2023-07-09T14:39:34;94549.00;;;39.90
10598;BMP180;5346;48.766;8.674;2023-07-09T14:42:12;94545.00;;;39.70
10598;BMP180;5346;48.766;8.674;2023-07-09T14:44:40;94542.00;;;39.30
10598;BMP180;5346;48.766;8.674;2023-07-09T14:47:21;94550.00;;;39.10
10598;BMP180;5346;48.766;8.674;2023-07-09T14:49:50;94555.00;;;38.70
10598;BMP180;5346;48.766;8.674;2023-07-09T14:52:24;94589.00;;;37.20
10598;BMP180;5346;48.766;8.674;2023-07-09T14:54:58;94598.00;;;35.70
10598;BMP180;5346;48.766;8.674;2023-07-09T14:57:26;94594.00;;;34.60
10598;BMP180;5346;48.766;8.674;2023-07-09T15:00:01;94595.00;;;34.40
10598;BMP180;5346;48.766;8.674;2023-07-09T15:02:37;94571.00;;;33.70
10598;BMP180;5346;48.766;8.674;2023-07-09T15:05:21;94598.00;;;33.40
10598;BMP180;5346;48.766;8.674;2023-07-09T15:07:55;94594.00;;;33.30
10598;BMP180;5346;48.766;8.674;2023-07-09T15:10:29;94579.00;;;33.00
10598;BMP180;5346;48.766;8.674;2023-07-09T15:12:58;94609.00;;;33.00
10598;BMP180;5346;48.766;8.674;2023-07-09T15:15:32;94593.00;;;32.90
10598;BMP180;5346;48.766;8.674;2023-07-09T15:18:09;94601.00;;;32.60
10598;BMP180;5346;48.766;8.674;2023-07-09T15:20:50;94603.00;;;32.90
10598;BMP180;5346;48.766;8.674;2023-07-09T15:23:19;94593.00;;;32.80
10598;BMP180;5346;48.766;8.674;2023-07-09T15:25:57;94593.00;;;32.60
10598;BMP180;5346;48.766;8.674;2023-07-09T15:28:31;94600.00;;;32.60
10598;BMP180;5346;48.766;8.674;2023-07-09T15:31:10;94609.00;;;32.60
10598;BMP180;5346;48.766;8.674;2023-07-09T15:33:38;94604.00;;;32.30
10598;BMP180;5346;48.766;8.674;2023-07-09T15:36:13;94585.00;;;32.10